Time;durP1;ratioP1;P1;durP2;ratioP2;P2;SDS_P1;SDS_P2;PMS_P1;PMS_P2;Temp;Humidity;BMP_temperature;BMP_pressure;BME280_temperature;BME280_humidity;BME280_pressure;Samples;Min_cycle;Max_cycle;Signal;HPM_P1;HPM_P2
2022/02/03 00:00:40;;;;;;;38.40;7.68;;;;;;;10.89;61.46;101187.94;4903914;28;121171;-84
2022/02/03 00:16:38;;;;;;;;;;;;;;;;;;;;;
2022/02/03 00:26:53;;;;;;;55.77;13.83;;;;;;;10.90;61.48;101184.75;4892200;28;123213;-86
2022/02/03 00:29:44;;;;;;;37.97;8.60;;;;;;;10.88;61.61;101169.91;4889990;28;122657;-86
2022/02/03 00:32:26;;;;;;;44.05;8.20;;;;;;;10.89;61.92;101175.00;4892199;28;120385;-85
2022/02/03 00:35:18;;;;;;;39.10;7.38;;;;;;;10.77;61.74;101151.06;4893045;28;121994;-86
2022/02/03 00:48:53;;;;;;;40.15;7.72;;;;;;;10.91;62.01;101169.06;4900768;28;122296;-86
2022/02/03 00:51:20;;;;;;;43.75;7.82;;;;;;;10.91;62.55;101163.56;4919852;28;120322;-85
2022/02/03 00:53:47;;;;;;;38.78;7.40;;;;;;;11.05;62.23;101188.56;4889110;28;119565;-85
2022/02/03 00:56:20;;;;;;;43.80;8.23;;;;;;;11.03;62.35;101182.75;4893502;28;121669;-85
2022/02/03 00:58:50;;;;;;;38.13;6.97;;;;;;;11.12;62.42;101178.56;4894435;28;119994;-84
2022/02/03 01:01:18;;;;;;;40.53;7.82;;;;;;;11.06;62.72;101175.63;4891160;28;120562;-83
2022/02/03 01:03:50;;;;;;;40.05;7.78;;;;;;;11.14;62.43;101176.19;4887936;28;122949;-85
2022/02/03 01:06:18;;;;;;;38.33;7.97;;;;;;;11.23;62.47;101190.75;4890740;28;119445;-84
2022/02/03 01:08:46;;;;;;;36.47;6.82;;;;;;;11.25;62.37;101191.06;4912461;28;122224;-84
2022/02/03 01:11:23;;;;;;;41.97;8.73;;;;;;;11.27;62.30;101177.66;4892574;28;120527;-83
2022/02/03 01:14:07;;;;;;;41.58;7.78;;;;;;;11.31;62.27;101186.56;4904838;28;119875;-83
2022/02/03 01:16:54;;;;;;;34.75;7.53;;;;;;;11.22;62.22;101180.22;4898508;28;119464;-85
2022/02/03 01:19:38;;;;;;;40.13;8.00;;;;;;;11.37;61.95;101189.53;4907708;28;120043;-81
2022/02/03 01:44:04;;;;;;;42.33;8.77;;;;;;;11.34;62.15;101171.16;4894838;28;119780;-84
2022/02/03 01:46:53;;;;;;;41.30;8.77;;;;;;;11.30;61.55;101156.78;4902175;28;120017;-87
2022/02/03 01:49:40;;;;;;;39.67;8.27;;;;;;;11.35;61.84;101164.47;4922120;28;120068;-84
2022/02/03 01:52:10;;;;;;;49.83;9.57;;;;;;;11.18;62.05;101136.41;4905033;28;119574;-83
2022/02/03 01:54:37;;;;;;;60.13;9.48;;;;;;;11.34;62.25;101158.19;4905175;28;123926;-83
2022/02/03 01:57:13;;;;;;;56.17;10.00;;;;;;;11.30;62.54;101151.28;4889659;28;119743;-85
2022/02/03 01:59:40;;;;;;;51.67;10.35;;;;;;;11.35;62.54;101151.50;4891259;28;122193;-85
2022/02/03 02:02:07;;;;;;;49.78;10.13;;;;;;;11.37;62.81;101154.59;4896990;28;122866;-84
2022/02/03 02:04:58;;;;;;;55.15;10.27;;;;;;;11.37;62.57;101149.09;4888018;28;119668;-83
2022/02/03 02:07:52;;;;;;;51.15;10.27;;;;;;;11.27;62.74;101127.47;4908775;28;123029;-83
2022/02/03 02:13:58;;;;;;;60.22;10.02;;;;;;;11.34;62.53;101129.97;4907914;28;122415;-84
2022/02/03 02:16:42;;;;;;;54.05;11.27;;;;;;;11.41;62.65;101132.50;4887906;28;122859;-84
2022/02/03 02:38:59;;;;;;;82.90;15.20;;;;;;;11.31;63.01;101097.91;4894001;28;121189;-84
2022/02/03 02:44:33;;;;;;;70.57;14.10;;;;;;;11.41;63.06;101107.00;4902469;28;122189;-83
2022/02/03 02:47:00;;;;;;;94.10;15.77;;;;;;;11.34;63.07;101097.00;4891541;28;121499;-84
2022/02/03 02:49:52;;;;;;;79.78;15.45;;;;;;;11.40;63.24;101094.50;4892929;28;119822;-84
2022/02/03 02:52:26;;;;;;;92.00;16.88;;;;;;;11.35;63.21;101095.78;4912070;28;119598;-82
2022/02/03 03:00:43;;;;;;;89.90;16.92;;;;;;;11.24;63.98;101076.94;4896049;28;119727;-82
2022/02/03 03:32:20;;;;;;;;;;;;;;;;;;;;;
2022/02/03 03:37:01;;;;;;;62.40;18.00;;;;;;;11.11;64.91;101037.00;4887879;28;122057;-82
2022/02/03 03:39:31;;;;;;;60.55;16.17;;;;;;;11.11;64.82;101026.81;4899134;28;120401;-83
2022/02/03 03:42:00;;;;;;;63.60;17.05;;;;;;;11.13;64.88;101032.63;4893298;28;119963;-84
2022/02/03 03:44:29;;;;;;;48.10;16.17;;;;;;;11.14;65.02;101031.44;4915266;28;119860;-83
2022/02/03 03:47:00;;;;;;;50.22;15.32;;;;;;;11.18;65.21;101039.53;4910860;28;119784;-83
2022/02/03 03:49:48;;;;;;;49.03;15.90;;;;;;;11.20;65.06;101026.13;4906719;28;120454;-83
2022/02/03 03:52:25;;;;;;;43.72;15.65;;;;;;;11.23;64.84;101025.22;4888056;28;123089;-81
2022/02/03 04:42:49;;;;;;;26.02;14.18;;;;;;;11.12;65.68;100954.22;4889571;28;119979;-84
2022/02/03 04:52:11;;;;;;;25.77;12.88;;;;;;;11.13;65.39;100946.75;4891850;28;119860;-83
2022/02/03 05:06:54;;;;;;;27.65;13.05;;;;;;;10.85;66.46;100904.63;4890607;28;121352;-84
2022/02/03 05:10:04;;;;;;;29.40;13.77;;;;;;;10.92;66.37;100916.13;4896832;28;119880;-85
2022/02/03 05:23:42;;;;;;;26.17;11.90;;;;;;;10.87;67.24;100904.94;4892271;28;122698;-83
2022/02/03 05:33:10;;;;;;;;;;;;;;;;;;;;;
2022/02/03 05:42:02;;;;;;;27.83;12.30;;;;;;;10.95;66.95;100879.53;4893374;28;122447;-84
2022/02/03 06:05:03;;;;;;;16.40;10.50;;;;;;;10.89;67.04;100847.66;4877401;28;119706;-82
2022/02/03 06:13:09;;;;;;;18.67;11.10;;;;;;;10.86;67.00;100826.56;4892097;28;120921;-81
2022/02/03 06:15:44;;;;;;;17.05;10.10;;;;;;;10.90;67.07;100827.97;4893239;28;123487;-79
2022/02/03 06:24:16;;;;;;;20.40;11.45;;;;;;;10.76;67.71;100812.78;4874110;28;122990;-79
2022/02/03 06:29:41;;;;;;;;;;;;;;;10.80;67.37;100809.16;4889767;28;126261;-77
2022/02/03 06:32:27;;;;;;;15.77;9.90;;;;;;;10.80;68.04;100804.44;4887582;28;120086;-77
2022/02/03 06:34:53;;;;;;;17.15;11.25;;;;;;;10.83;67.51;100797.28;4893686;28;121042;-77
2022/02/03 06:37:27;;;;;;;18.25;10.80;;;;;;;10.86;67.88;100799.88;4888910;28;121965;-78
2022/02/03 06:39:53;;;;;;;17.80;11.25;;;;;;;10.88;67.38;100802.94;4859295;28;123104;-80
2022/02/03 06:42:18;;;;;;;17.27;11.38;;;;;;;10.90;67.49;100802.53;4917357;28;119980;-79
2022/02/03 06:44:53;;;;;;;17.52;11.23;;;;;;;10.88;67.74;100789.22;4894144;28;121870;-77
2022/02/03 06:47:34;;;;;;;20.87;12.00;;;;;;;10.91;67.51;100788.34;4910057;28;119738;-80
2022/02/03 06:53:17;;;;;;;17.98;11.75;;;;;;;11.04;67.47;100782.75;4893514;28;122738;-79
2022/02/03 06:58:00;;;;;;;18.85;11.35;;;;;;;11.06;67.48;100781.09;4891212;28;120844;-78
2022/02/03 07:00:56;;;;;;;15.63;10.68;;;;;;;11.10;67.59;100769.97;4913070;28;119951;-78
2022/02/03 07:03:24;;;;;;;16.85;10.52;;;;;;;11.11;67.35;100773.47;4892499;28;119680;-77
2022/02/03 07:05:53;;;;;;;13.65;10.10;;;;;;;11.09;67.80;100765.69;4894989;28;121524;-78
2022/02/03 07:08:22;;;;;;;14.20;9.38;;;;;;;11.06;67.88;100763.84;4894650;28;119784;-78
2022/02/03 07:10:51;;;;;;;15.13;9.95;;;;;;;11.07;67.90;100765.38;4896082;28;120327;-77
2022/02/03 07:13:16;;;;;;;15.82;10.38;;;;;;;11.06;67.91;100770.09;4896038;28;119807;-77
2022/02/03 07:15:42;;;;;;;15.30;10.45;;;;;;;11.08;68.10;100755.94;4897130;28;120039;-77
2022/02/03 07:18:08;;;;;;;14.73;9.18;;;;;;;11.07;67.98;100762.63;4912114;28;122293;-77
2022/02/03 07:20:34;;;;;;;13.70;9.48;;;;;;;11.08;68.08;100753.94;4891136;28;122653;-77
2022/02/03 07:23:01;;;;;;;12.77;8.63;;;;;;;11.12;67.83;100744.81;4890815;28;119888;-77
2022/02/03 07:25:27;;;;;;;15.05;8.48;;;;;;;11.16;67.86;100737.97;4894300;28;120865;-77
2022/02/03 07:28:01;;;;;;;13.10;8.40;;;;;;;11.06;68.11;100747.38;4875616;28;123156;-77
2022/02/03 07:30:26;;;;;;;11.85;9.10;;;;;;;11.08;68.11;100759.44;4878881;28;119469;-77
2022/02/03 07:33:02;;;;;;;11.43;8.27;;;;;;;11.07;67.72;100740.66;4880019;28;123582;-77
2022/02/03 07:35:35;;;;;;;14.40;8.90;;;;;;;11.11;68.00;100754.25;4890889;28;119837;-77
2022/02/03 07:38:04;;;;;;;12.18;8.20;;;;;;;11.07;68.35;100748.91;4889299;28;121660;-77
2022/02/03 07:40:29;;;;;;;10.38;7.18;;;;;;;11.15;68.14;100757.66;4892595;28;123538;-75
2022/02/03 07:42:56;;;;;;;13.40;7.80;;;;;;;11.20;68.26;100746.06;4895818;28;120623;-77
2022/02/03 07:45:22;;;;;;;11.82;7.80;;;;;;;11.20;68.02;100746.06;4892333;28;120623;-78
2022/02/03 07:47:52;;;;;;;11.55;8.05;;;;;;;11.18;67.87;100748.50;4876352;28;122969;-77
2022/02/03 07:50:20;;;;;;;11.93;8.45;;;;;;;11.15;68.29;100754.91;4894273;28;120973;-78
2022/02/03 07:52:46;;;;;;;13.18;7.90;;;;;;;11.14;68.26;100747.88;4902534;28;122784;-77
2022/02/03 07:55:13;;;;;;;11.57;8.38;;;;;;;11.17;68.59;100749.72;4904713;28;120867;-77
2022/02/03 07:57:53;;;;;;;12.40;8.02;;;;;;;11.19;68.17;100744.53;4890552;28;122237;-77
2022/02/03 08:00:21;;;;;;;12.95;8.48;;;;;;;11.14;68.75;100737.66;4904550;28;121879;-76
2022/02/03 08:02:46;;;;;;;15.35;9.20;;;;;;;11.20;68.70;100746.06;4891636;28;119871;-76
2022/02/03 08:05:30;;;;;;;16.08;9.48;;;;;;;11.20;68.82;100740.56;4882649;28;119578;-78
2022/02/03 08:11:02;;;;;;;18.20;9.77;;;;;;;11.32;68.59;100739.69;4831994;28;120515;-76
2022/02/03 08:16:01;;;;;;;21.15;10.00;;;;;;;11.36;68.80;100737.59;4893059;28;120382;-76
2022/02/03 08:18:31;;;;;;;19.10;10.05;;;;;;;11.35;68.58;100725.81;4907745;28;120128;-76
2022/02/03 08:21:02;;;;;;;21.48;10.20;;;;;;;11.40;69.02;100729.97;4888259;28;119929;-75
2022/02/03 08:23:55;;;;;;;15.02;8.57;;;;;;;11.47;68.83;100723.41;4891009;28;120429;-77
2022/02/03 08:31:24;;;;;;;19.17;9.80;;;;;;;11.60;68.91;100721.28;4885568;28;119765;-76
2022/02/03 08:33:53;;;;;;;19.33;10.23;;;;;;;11.59;69.21;100706.81;4891574;28;121516;-77
2022/02/03 08:36:20;;;;;;;25.65;10.90;;;;;;;11.65;69.07;100720.69;4877689;28;122709;-77
2022/02/03 08:38:49;;;;;;;19.67;9.60;;;;;;;11.73;69.29;100712.91;4881958;28;121740;-77
2022/02/03 08:41:15;;;;;;;24.88;10.48;;;;;;;11.82;69.23;100723.91;4890649;28;122739;-77
2022/02/03 08:43:43;;;;;;;20.55;10.40;;;;;;;11.88;68.90;100724.84;4905639;28;119558;-77
2022/02/03 08:46:18;;;;;;;25.00;11.10;;;;;;;11.92;70.04;100723.47;4888537;28;119842;-78
2022/02/03 08:48:46;;;;;;;20.77;9.98;;;;;;;11.92;69.28;100715.22;4887030;28;120076;-77
2022/02/03 08:51:13;;;;;;;19.17;10.55;;;;;;;11.91;68.82;100699.97;4886940;28;120497;-78
2022/02/03 08:56:22;;;;;;;21.50;11.07;;;;;;;12.04;69.60;100710.78;4883224;28;123997;-78
2022/02/03 08:59:18;;;;;;;18.65;10.50;;;;;;;12.07;69.61;100704.38;4891491;28;121174;-77
2022/02/03 09:53:49;;;;;;;;;;;;;;;;;;;;;
2022/02/03 09:58:38;;;;;;;59.60;25.95;;;;;;;12.58;68.97;100704.44;4899895;28;123129;-76
2022/02/03 10:01:10;;;;;;;56.40;26.38;;;;;;;12.61;69.87;100705.50;4911120;28;123110;-77
2022/02/03 10:06:09;;;;;;;55.33;26.33;;;;;;;12.61;68.82;100708.25;4889224;28;119920;-77
2022/02/03 10:08:44;;;;;;;64.18;27.10;;;;;;;12.59;69.28;100694.19;4889153;28;120144;-77
2022/02/03 10:11:14;;;;;;;65.25;26.77;;;;;;;12.64;70.64;100692.81;4886122;28;120356;-77
2022/02/03 10:14:03;;;;;;;60.35;26.02;;;;;;;12.74;70.70;100697.78;4886344;28;124921;-77
2022/02/03 10:16:29;;;;;;;64.40;26.48;;;;;;;12.76;70.42;100702.84;4898375;28;120181;-77
2022/02/03 10:19:14;;;;;;;62.10;26.30;;;;;;;12.74;69.41;100697.78;4884053;28;122388;-77
2022/02/03 10:21:42;;;;;;;65.05;26.73;;;;;;;12.72;68.89;100683.75;4880800;28;124049;-86
2022/02/03 10:24:10;;;;;;;56.45;23.42;;;;;;;12.70;69.35;100688.19;4883931;28;120343;-89
2022/02/03 10:26:39;;;;;;;52.40;22.85;;;;;;;12.64;68.91;100668.78;4898186;28;122682;-84
2022/02/03 10:29:06;;;;;;;59.00;22.02;;;;;;;12.77;70.24;100680.34;4901417;28;120608;-89
2022/02/03 10:31:41;;;;;;;55.60;21.75;;;;;;;12.91;71.15;100693.44;4886963;28;119983;-92
2022/02/03 10:34:11;;;;;;;54.05;22.58;;;;;;;12.97;70.44;100679.81;4887593;28;123578;-91
2022/02/03 10:36:44;;;;;;;50.75;21.55;;;;;;;13.01;70.04;100696.16;4888031;28;120315;-91
2022/02/03 10:39:53;;;;;;;48.80;22.67;;;;;;;12.99;70.92;100680.09;4904157;28;119577;-92
2022/02/03 10:55:59;;;;;;;56.45;26.98;;;;;;;13.02;68.87;100679.19;4862576;28;122734;-89
2022/02/03 11:06:36;;;;;;;60.15;28.40;;;;;;;13.14;68.98;100663.66;4888961;28;119829;-91
2022/02/03 11:11:41;;;;;;;56.83;27.02;;;;;;;13.20;70.10;100673.59;4906697;28;122735;-93
2022/02/03 11:14:09;;;;;;;56.75;28.08;;;;;;;12.94;69.09;100616.66;4908268;28;119702;-91
2022/02/03 11:16:40;;;;;;;52.53;26.30;;;;;;;13.26;69.45;100664.69;4874027;28;122554;-90
2022/02/03 11:19:11;;;;;;;61.75;27.25;;;;;;;13.20;69.30;100670.06;4910668;28;119796;-87
2022/02/03 11:21:43;;;;;;;60.78;28.73;;;;;;;13.16;68.99;100674.97;4905850;28;119784;-89
2022/02/03 11:24:17;;;;;;;53.08;26.73;;;;;;;13.16;70.03;100672.22;4892769;28;121916;-91
2022/02/03 11:37:42;;;;;;;73.63;33.42;;;;;;;13.09;68.11;100647.78;4898058;28;122362;-85
2022/02/03 11:40:49;;;;;;;78.32;36.28;;;;;;;13.07;67.78;100645.50;4892125;28;122289;-90
2022/02/03 11:51:25;;;;;;;76.30;33.25;;;;;;;13.08;68.64;100633.25;4911597;28;119646;-89
2022/02/03 12:02:30;;;;;;;68.85;31.63;;;;;;;13.23;68.81;100630.56;4890574;28;120419;-91
2022/02/03 12:07:45;;;;;;;76.25;34.33;;;;;;;13.25;67.81;100622.63;4908693;28;120561;-93
2022/02/03 12:21:25;;;;;;;91.47;37.45;;;;;;;13.17;67.93;100624.94;4892512;28;121123;-96
2022/02/03 12:23:58;;;;;;;79.32;35.45;;;;;;;13.11;68.25;100615.78;4904791;28;120444;-91
2022/02/03 12:26:36;;;;;;;79.85;36.20;;;;;;;13.08;67.88;100624.22;4891784;28;119801;-89
2022/02/03 12:29:24;;;;;;;77.25;35.10;;;;;;;13.04;67.60;100618.13;4892766;28;122819;-93
2022/02/03 12:39:55;;;;;;;56.85;27.48;;;;;;;13.09;69.17;100595.47;4890907;28;120585;-93
2022/02/03 12:42:43;;;;;;;;;;;;;;;;;;;;;
2022/02/03 12:44:51;;;;;;;68.30;31.25;;;;;;;12.98;68.41;100562.94;4892023;28;120236;-87
2022/02/03 12:47:17;;;;;;;78.15;35.53;;;;;;;13.11;68.32;100577.22;4892387;28;119881;-94
2022/02/03 12:49:45;;;;;;;77.45;35.13;;;;;;;13.11;67.83;100576.47;4888292;28;121523;-94
2022/02/03 12:52:22;;;;;;;81.18;36.72;;;;;;;13.20;68.27;100576.44;4897384;28;122399;-93
2022/02/03 12:54:47;;;;;;;79.25;36.13;;;;;;;12.99;67.75;100552.69;4892637;28;124737;-94
2022/02/03 12:57:24;;;;;;;81.47;36.88;;;;;;;13.08;66.82;100564.41;4889057;28;123300;-93
2022/02/03 13:00:13;;;;;;;86.90;36.40;;;;;;;12.74;66.72;100505.13;4910070;28;120855;-94
2022/02/03 13:02:40;;;;;;;80.22;34.65;;;;;;;13.09;67.82;100557.66;4892621;28;123060;-90
2022/02/03 13:05:06;;;;;;;71.50;34.55;;;;;;;13.16;68.03;100559.28;4909033;28;122838;-92
2022/02/03 13:07:31;;;;;;;79.18;35.10;;;;;;;13.18;67.40;100552.13;4896909;28;119545;-92
2022/02/03 13:10:09;;;;;;;76.32;34.80;;;;;;;13.29;67.09;100559.84;4891416;28;121912;-87
2022/02/03 13:12:40;;;;;;;65.28;32.55;;;;;;;13.20;67.88;100546.88;4907683;28;120515;-93
2022/02/03 13:15:07;;;;;;;66.38;34.75;;;;;;;12.99;67.00;100516.91;4893425;28;120945;-95
2022/02/03 13:17:38;;;;;;;68.30;34.55;;;;;;;13.19;66.57;100544.59;4890532;28;120244;-87
2022/02/03 13:20:10;;;;;;;59.70;32.70;;;;;;;13.23;67.24;100547.94;4892951;28;121621;-95
2022/02/03 13:22:57;;;;;;;;;;;;;;;;;;;;;
2022/02/03 13:27:48;;;;;;;53.65;30.20;;;;;;;13.25;66.67;100536.44;4890603;28;121660;-94
2022/02/03 13:30:46;;;;;;;48.50;29.33;;;;;;;13.17;65.93;100520.28;4889713;28;119750;-91
2022/02/03 13:33:14;;;;;;;52.13;30.10;;;;;;;13.13;65.46;100511.44;4885674;28;122201;-89
2022/02/03 13:35:50;;;;;;;45.55;28.77;;;;;;;13.13;65.91;100511.44;4900325;28;121155;-89
2022/02/03 13:38:27;;;;;;;47.10;28.52;;;;;;;13.10;66.36;100515.13;4923759;28;121147;-92
2022/02/03 13:41:15;;;;;;;50.65;28.67;;;;;;;13.08;66.57;100506.59;4904595;28;119604;-93
2022/02/03 13:43:42;;;;;;;50.78;28.02;;;;;;;13.08;66.89;100503.84;4889732;28;120581;-90
2022/02/03 13:46:09;;;;;;;49.58;29.67;;;;;;;13.09;66.65;100501.84;4895214;28;119567;-93
2022/02/03 13:48:38;;;;;;;46.92;27.90;;;;;;;13.03;66.41;100490.72;4888048;28;120050;-88
2022/02/03 13:51:08;;;;;;;45.72;27.02;;;;;;;12.99;66.82;100492.13;4886910;28;122188;-92
2022/02/03 14:11:58;;;;;;;46.90;28.00;;;;;;;13.03;67.14;100495.47;4828383;28;120290;-89
2022/02/03 14:22:06;;;;;;;44.28;27.55;;;;;;;12.91;66.06;100473.22;4828071;29;120139;-96
2022/02/03 14:27:27;;;;;;;43.22;27.63;;;;;;;12.78;66.65;100472.72;4837126;28;119807;-93
2022/02/03 14:30:13;;;;;;;49.97;27.40;;;;;;;12.82;66.16;100480.78;4838059;28;120577;-90
2022/02/03 14:32:40;;;;;;;49.13;27.80;;;;;;;12.84;67.39;100486.59;4817693;29;122029;-93
2022/02/03 14:35:08;;;;;;;51.92;29.38;;;;;;;12.80;67.02;100477.75;4834517;28;119823;-88
2022/02/03 14:37:46;;;;;;;45.15;27.25;;;;;;;12.74;66.60;100461.09;4836431;29;122187;-94
2022/02/03 14:40:25;;;;;;;46.20;27.50;;;;;;;12.75;66.82;100467.38;4911087;28;119810;-96
2022/02/03 14:42:51;;;;;;;51.70;28.83;;;;;;;12.45;67.29;100437.00;4894524;28;122528;-88
2022/02/03 14:45:18;;;;;;;47.15;27.02;;;;;;;12.49;68.66;100423.06;4893609;28;122718;-88
2022/02/03 14:47:43;;;;;;;49.15;27.08;;;;;;;12.83;68.38;100465.81;4896636;28;120355;-88
2022/02/03 14:50:11;;;;;;;51.20;27.55;;;;;;;12.65;68.09;100430.91;4896507;28;123479;-90
2022/02/03 14:58:18;;;;;;;59.10;29.00;;;;;;;12.79;67.39;100463.22;4889899;28;123552;-93
2022/02/03 15:00:46;;;;;;;47.97;27.95;;;;;;;12.84;67.61;100456.31;4906723;28;119663;-94
2022/02/03 15:03:13;;;;;;;59.35;30.55;;;;;;;12.76;66.63;100446.88;4911749;28;120693;-91
2022/02/03 15:05:39;;;;;;;52.10;30.02;;;;;;;12.71;66.51;100439.28;4908585;28;120197;-94
2022/02/03 15:08:45;;;;;;;53.13;28.60;;;;;;;12.80;67.45;100455.72;4896876;28;120255;-93
2022/02/03 15:11:25;;;;;;;59.08;30.92;;;;;;;12.76;66.75;100447.63;4893345;28;122372;-93
2022/02/03 15:13:51;;;;;;;55.25;31.20;;;;;;;12.74;67.93;100439.09;4863552;28;119630;-91
2022/02/03 15:16:17;;;;;;;56.22;31.88;;;;;;;12.51;67.04;100393.88;4892449;28;122437;-95
2022/02/03 15:18:43;;;;;;;58.90;32.97;;;;;;;12.86;66.68;100445.59;4890982;28;123268;-91
2022/02/03 15:21:12;;;;;;;59.97;32.70;;;;;;;12.67;65.82;100411.19;4895223;28;119675;-94
2022/02/03 15:23:38;;;;;;;56.95;32.00;;;;;;;12.78;66.17;100427.94;4904910;28;121192;-89
2022/02/03 15:26:06;;;;;;;63.03;33.17;;;;;;;12.57;65.78;100397.50;4874513;28;123235;-96
2022/02/03 15:28:32;;;;;;;56.20;32.75;;;;;;;12.82;65.60;100442.25;4890047;28;119711;-96
2022/02/03 15:31:01;;;;;;;59.95;33.90;;;;;;;12.63;65.50;100414.13;4891589;28;119870;-90
2022/02/03 15:33:28;;;;;;;53.85;32.42;;;;;;;12.65;65.28;100414.41;4877274;28;124430;-95
2022/02/03 15:35:59;;;;;;;62.25;33.22;;;;;;;12.51;65.89;100395.84;4885063;28;122742;-90
2022/02/03 15:38:26;;;;;;;59.40;32.83;;;;;;;12.48;65.89;100405.06;4890998;28;120966;-92
2022/02/03 15:40:55;;;;;;;55.88;33.05;;;;;;;12.68;65.72;100440.22;4892073;28;121215;-91
2022/02/03 15:45:50;;;;;;;65.15;36.75;;;;;;;12.59;65.55;100424.56;4905944;28;120213;-96
2022/02/03 15:56:15;;;;;;;54.53;34.15;;;;;;;12.32;65.69;100391.75;4886520;28;121515;-96
2022/02/03 16:01:53;;;;;;;57.25;31.83;;;;;;;12.50;66.88;100419.09;4886250;28;120584;-95
2022/02/03 16:18:05;;;;;;;54.03;31.85;;;;;;;12.38;66.35;100400.84;4860095;28;120463;-91
2022/02/03 16:21:18;;;;;;;50.97;31.42;;;;;;;12.45;66.20;100412.25;4893202;28;122611;-86
2022/02/03 16:53:00;;;;;;;57.40;30.38;;;;;;;12.40;66.40;100395.66;4885569;28;119957;-94
2022/02/03 16:55:32;;;;;;;58.97;31.58;;;;;;;12.33;65.95;100394.03;4884933;28;122093;-87
2022/02/03 16:57:58;;;;;;;59.67;31.23;;;;;;;12.00;65.95;100350.06;4885146;28;123620;-96
2022/02/03 17:00:24;;;;;;;55.53;29.67;;;;;;;12.42;66.54;100404.19;4886185;28;119984;-95
2022/02/03 17:02:51;;;;;;;55.83;31.23;;;;;;;12.09;66.00;100360.28;4877160;28;121221;-96
2022/02/03 17:05:17;;;;;;;51.72;30.05;;;;;;;12.22;66.45;100369.03;4904466;28;120557;-90
2022/02/03 17:07:43;;;;;;;49.55;31.25;;;;;;;12.13;66.27;100358.84;4885421;28;121235;-92
2022/02/03 17:10:09;;;;;;;54.35;31.50;;;;;;;12.24;66.19;100364.56;4883736;28;124755;-90
2022/02/03 17:12:35;;;;;;;57.47;32.47;;;;;;;12.16;66.02;100362.66;4868941;28;120135;-93
2022/02/03 17:15:01;;;;;;;51.53;32.08;;;;;;;12.47;65.91;100409.03;4867475;28;122345;-94
2022/02/03 17:17:27;;;;;;;57.92;32.35;;;;;;;12.43;66.37;100406.47;4898446;28;120649;-93
2022/02/03 17:19:52;;;;;;;65.50;32.08;;;;;;;12.23;66.84;100371.31;4868652;28;119688;-90
2022/02/03 17:22:24;;;;;;;58.78;31.23;;;;;;;12.51;66.39;100409.63;4874908;28;121184;-96
2022/02/03 17:25:09;;;;;;;54.60;29.73;;;;;;;12.31;66.36;100376.47;4871219;28;123094;-95
2022/02/03 17:27:49;;;;;;;62.47;31.70;;;;;;;12.34;66.09;100379.03;4873717;28;120582;-95
2022/02/03 17:30:25;;;;;;;56.88;30.55;;;;;;;12.33;66.02;100388.53;4870905;28;123092;-94
2022/02/03 18:03:26;;;;;;;59.67;31.67;;;;;;;12.30;65.75;100372.94;4885109;28;120640;-96
2022/02/03 18:51:27;;;;;;;62.70;28.30;;;;;;;12.47;66.17;100363.03;4886193;28;123342;-95
2022/02/03 18:54:21;;;;;;;65.32;28.70;;;;;;;12.55;66.25;100375.22;4874636;28;119525;-96
2022/02/03 19:02:57;;;;;;;44.90;23.92;;;;;;;12.44;66.00;100371.47;4894023;28;119609;-95
2022/02/03 19:15:46;;;;;;;49.15;23.02;;;;;;;12.42;65.82;100346.44;4900940;28;119827;-94
2022/02/03 20:08:53;;;;;;;58.58;22.80;;;;;;;12.38;66.09;100337.59;4901914;28;121678;-92
2022/02/03 20:11:21;;;;;;;53.92;22.05;;;;;;;12.40;66.23;100332.38;4900522;28;120626;-88
2022/02/03 20:13:47;;;;;;;69.35;24.02;;;;;;;12.42;66.12;100336.19;4903411;28;121068;-93
2022/02/03 20:16:16;;;;;;;52.10;22.48;;;;;;;12.43;66.24;100336.94;4900379;28;122111;-88
2022/02/03 20:18:42;;;;;;;50.70;21.63;;;;;;;12.46;65.49;100338.75;4885188;28;120723;-93
2022/02/03 20:21:08;;;;;;;51.15;21.73;;;;;;;12.42;65.67;100338.94;4891088;28;120659;-92
2022/02/03 20:23:41;;;;;;;48.60;21.83;;;;;;;12.42;65.77;100338.19;4901527;28;120181;-86
2022/02/03 20:26:07;;;;;;;56.83;22.13;;;;;;;12.45;65.05;100337.22;4901877;28;120441;-85
2022/02/03 20:28:33;;;;;;;48.75;21.45;;;;;;;12.12;65.44;100301.59;4882764;28;122162;-88
2022/02/03 20:30:59;;;;;;;52.00;22.80;;;;;;;12.25;65.66;100316.59;4903229;28;120437;-91
2022/02/03 20:33:25;;;;;;;51.88;22.63;;;;;;;12.12;66.87;100290.59;4901548;28;120393;-94
2022/02/03 20:35:50;;;;;;;49.95;22.85;;;;;;;12.16;65.98;100300.19;4906751;28;120028;-89
2022/02/03 20:38:17;;;;;;;50.35;23.25;;;;;;;12.38;65.61;100323.84;4903012;28;119610;-94
2022/02/03 20:40:44;;;;;;;50.45;22.90;;;;;;;12.36;65.58;100324.31;4887982;28;120240;-93
2022/02/03 20:43:11;;;;;;;49.58;22.40;;;;;;;11.97;66.52;100265.81;4918919;28;120548;-84
2022/02/03 20:45:56;;;;;;;52.15;24.08;;;;;;;11.95;66.15;100269.03;5085785;22;124337;-92
2022/02/03 20:48:23;;;;;;;50.70;23.80;;;;;;;12.04;65.68;100267.44;4933701;28;120580;-91
2022/02/03 20:50:51;;;;;;;47.60;23.20;;;;;;;11.99;65.82;100266.09;4933299;28;120569;-87
2022/02/03 20:53:28;;;;;;;47.28;24.08;;;;;;;12.14;65.14;100280.66;4912986;28;119857;-95
2022/02/03 20:55:54;;;;;;;56.75;26.05;;;;;;;12.39;65.50;100319.88;4926995;28;119681;-91
2022/02/03 20:58:21;;;;;;;54.33;25.73;;;;;;;12.18;65.20;100294.97;4916617;28;123102;-94
2022/02/03 21:00:55;;;;;;;61.53;25.25;;;;;;;12.21;65.51;100298.78;4910942;28;122001;-91
2022/02/03 21:03:34;;;;;;;56.67;24.95;;;;;;;12.31;65.96;100307.72;4911212;28;120635;-87
2022/02/03 21:06:04;;;;;;;57.45;25.25;;;;;;;11.88;65.39;100246.66;4900736;28;120056;-91
2022/02/03 21:08:50;;;;;;;53.17;23.50;;;;;;;11.92;65.82;100249.97;4892374;28;120820;-94
2022/02/03 21:11:18;;;;;;;48.45;23.85;;;;;;;11.90;65.37;100250.44;4916971;28;122034;-96
2022/02/03 21:14:01;;;;;;;;;;;;;;;;;;;;;
2022/02/03 21:16:29;;;;;;;52.30;22.08;;;;;;;12.00;65.42;100267.63;4916072;28;119874;-95
2022/02/03 21:18:57;;;;;;;42.70;20.58;;;;;;;12.10;65.55;100279.31;4919290;28;123244;-93
2022/02/03 21:21:24;;;;;;;42.45;21.08;;;;;;;12.29;65.74;100308.91;4930928;28;121288;-93
2022/02/03 21:24:01;;;;;;;40.90;19.15;;;;;;;11.87;65.82;100247.88;4910412;28;121822;-93
2022/02/03 21:26:38;;;;;;;37.53;19.05;;;;;;;12.03;65.70;100274.91;4905755;28;120672;-96
2022/02/03 21:29:09;;;;;;;39.28;19.63;;;;;;;12.05;65.58;100269.72;4924478;28;120103;-91
2022/02/03 21:31:38;;;;;;;35.28;18.33;;;;;;;12.00;65.48;100264.88;4913347;28;122933;-89
2022/02/03 21:37:07;;;;;;;32.28;16.33;;;;;;;12.13;65.68;100270.13;5001478;23;122121;-90
2022/02/03 21:39:33;;;;;;;30.77;15.70;;;;;;;12.03;66.07;100250.19;4828688;28;121488;-96
2022/02/03 21:41:58;;;;;;;26.90;14.82;;;;;;;12.06;66.22;100243.72;4824153;28;120325;-95
2022/02/03 21:50:12;;;;;;;27.17;14.50;;;;;;;12.10;65.87;100247.09;5729830;23;121274;-86
2022/02/03 21:53:08;;;;;;;25.92;15.07;;;;;;;12.10;65.83;100244.34;4874785;28;120315;-92
2022/02/03 21:55:55;;;;;;;18.42;11.82;;;;;;;12.07;66.17;100245.28;4860041;28;120013;-89
2022/02/03 21:58:28;;;;;;;20.75;11.75;;;;;;;12.26;66.04;100260.38;4878392;28;120004;-86
2022/02/03 22:00:55;;;;;;;19.70;10.27;;;;;;;12.21;65.46;100252.03;4845748;28;123618;-92
2022/02/03 22:03:24;;;;;;;17.33;10.60;;;;;;;12.42;65.68;100285.91;4851652;28;119897;-89
2022/02/03 22:05:51;;;;;;;16.55;9.98;;;;;;;12.16;65.72;100256.19;4867560;28;121448;-94
2022/02/03 22:08:18;;;;;;;18.80;9.85;;;;;;;12.35;66.02;100289.81;4858747;28;121560;-90
2022/02/03 22:10:43;;;;;;;16.90;9.88;;;;;;;12.39;65.69;100286.88;4860243;28;121340;-93
2022/02/03 22:13:09;;;;;;;15.95;9.68;;;;;;;12.26;65.51;100262.34;4838023;28;123090;-90